Time;durP1;ratioP1;P1;durP2;ratioP2;P2;SDS_P1;SDS_P2;PMS_P1;PMS_P2;Temp;Humidity;BMP_temperature;BMP_pressure;BME280_temperature;BME280_humidity;BME280_pressure;Samples;Min_cycle;Max_cycle;Signal;HPM_P1;HPM_P2
2020/12/19 00:04:53;;;;;;;4.83;2.80;;;;;;;;;;10363995;28;20119;-60
2020/12/19 00:09:50;;;;;;;3.73;2.37;;;;;;;;;;10368462;28;20036;-61
2020/12/19 00:14:49;;;;;;;5.47;3.20;;;;;;;;;;10351775;28;20021;-61
2020/12/19 00:19:46;;;;;;;5.50;2.40;;;;;;;;;;10338664;28;20029;-61
2020/12/19 00:24:43;;;;;;;4.70;2.67;;;;;;;;;;10361923;28;20021;-61
2020/12/19 00:29:41;;;;;;;7.27;3.23;;;;;;;;;;10328975;28;20036;-61
2020/12/19 00:34:38;;;;;;;4.50;2.80;;;;;;;;;;10366250;28;20059;-59
2020/12/19 00:39:36;;;;;;;5.40;3.00;;;;;;;;;;10354172;28;20033;-61
2020/12/19 00:44:33;;;;;;;5.50;2.90;;;;;;;;;;10364588;28;20396;-61
2020/12/19 00:49:31;;;;;;;3.90;2.10;;;;;;;;;;10362978;28;20112;-60
2020/12/19 00:54:28;;;;;;;3.10;2.53;;;;;;;;;;10364351;28;20032;-59
2020/12/19 00:59:25;;;;;;;3.83;2.83;;;;;;;;;;10358553;28;20052;-61
2020/12/19 01:04:23;;;;;;;7.37;2.70;;;;;;;;;;10371790;28;20048;-60
2020/12/19 01:09:22;;;;;;;6.83;3.23;;;;;;;;;;10367128;28;20120;-61
2020/12/19 01:14:19;;;;;;;5.30;3.13;;;;;;;;;;10362860;28;20064;-61
2020/12/19 01:19:17;;;;;;;6.20;3.30;;;;;;;;;;10356506;28;20124;-58
2020/12/19 01:24:14;;;;;;;5.30;2.70;;;;;;;;;;10329248;28;20169;-60
2020/12/19 01:29:11;;;;;;;4.47;3.27;;;;;;;;;;10350682;28;20707;-59
2020/12/19 01:34:09;;;;;;;6.83;4.27;;;;;;;;;;10357962;28;20028;-66
2020/12/19 01:39:06;;;;;;;7.70;3.77;;;;;;;;;;10342769;28;20037;-60
2020/12/19 01:44:05;;;;;;;7.10;4.20;;;;;;;;;;10351262;28;20040;-59
2020/12/19 01:49:03;;;;;;;6.72;3.92;;;;;;;;;;10333704;28;20456;-58
2020/12/19 01:54:00;;;;;;;9.00;4.37;;;;;;;;;;10324497;28;20033;-59
2020/12/19 01:58:59;;;;;;;5.13;3.47;;;;;;;;;;10330846;28;20039;-59
2020/12/19 02:03:56;;;;;;;8.48;4.35;;;;;;;;;;10374382;28;20032;-60
2020/12/19 02:08:54;;;;;;;5.40;3.23;;;;;;;;;;10358454;28;20029;-58
2020/12/19 02:13:51;;;;;;;11.57;4.40;;;;;;;;;;10357871;28;20037;-58
2020/12/19 02:18:48;;;;;;;8.13;4.33;;;;;;;;;;10359546;28;20040;-60
2020/12/19 02:23:46;;;;;;;5.70;3.90;;;;;;;;;;10369187;28;20043;-58
2020/12/19 02:28:43;;;;;;;8.07;4.20;;;;;;;;;;10347745;28;20037;-61
2020/12/19 02:33:41;;;;;;;6.87;3.60;;;;;;;;;;10324020;28;20048;-59
2020/12/19 02:38:38;;;;;;;9.10;4.83;;;;;;;;;;10327826;28;20036;-60
2020/12/19 02:43:36;;;;;;;5.67;4.13;;;;;;;;;;10376901;28;20089;-61
2020/12/19 02:48:34;;;;;;;9.65;4.70;;;;;;;;;;10330607;28;20048;-59
2020/12/19 02:53:32;;;;;;;8.50;4.77;;;;;;;;;;10363994;28;20560;-59
2020/12/19 02:58:29;;;;;;;10.43;5.17;;;;;;;;;;10368865;28;20040;-60
2020/12/19 03:03:27;;;;;;;7.17;4.73;;;;;;;;;;10365106;28;20110;-60
2020/12/19 03:08:24;;;;;;;10.00;5.10;;;;;;;;;;10369830;28;20044;-59
2020/12/19 03:13:22;;;;;;;12.00;5.67;;;;;;;;;;10373165;28;20028;-60
2020/12/19 03:18:19;;;;;;;11.03;4.97;;;;;;;;;;10376360;28;20209;-64
2020/12/19 03:23:16;;;;;;;10.33;4.17;;;;;;;;;;10372593;28;20037;-64
2020/12/19 03:28:14;;;;;;;12.20;5.20;;;;;;;;;;10371251;28;20040;-65
2020/12/19 03:33:11;;;;;;;8.80;4.70;;;;;;;;;;10373331;28;20033;-65
2020/12/19 03:38:09;;;;;;;8.77;4.60;;;;;;;;;;10356659;28;20044;-63
2020/12/19 03:43:06;;;;;;;11.37;6.67;;;;;;;;;;10358603;28;20033;-63
2020/12/19 03:48:03;;;;;;;14.07;5.37;;;;;;;;;;10364375;28;20009;-63
2020/12/19 03:53:01;;;;;;;10.80;6.87;;;;;;;;;;10354829;28;20398;-59
2020/12/19 03:57:58;;;;;;;13.03;6.63;;;;;;;;;;10375306;28;20524;-61
2020/12/19 04:02:55;;;;;;;16.07;6.73;;;;;;;;;;10378582;28;20531;-62
2020/12/19 04:07:53;;;;;;;10.23;5.67;;;;;;;;;;10376862;28;20033;-60
2020/12/19 04:12:50;;;;;;;13.67;6.63;;;;;;;;;;10351885;28;20041;-61
2020/12/19 04:17:48;;;;;;;12.27;6.07;;;;;;;;;;10368690;28;20167;-61
2020/12/19 04:22:45;;;;;;;13.47;7.10;;;;;;;;;;10379575;28;20043;-60
2020/12/19 04:27:43;;;;;;;15.60;7.20;;;;;;;;;;10328259;28;20398;-61
2020/12/19 04:32:41;;;;;;;12.93;6.67;;;;;;;;;;10341298;28;20059;-60
2020/12/19 04:37:38;;;;;;;16.27;7.33;;;;;;;;;;10349020;28;20499;-60
2020/12/19 04:42:36;;;;;;;18.27;8.10;;;;;;;;;;10347575;28;20047;-60
2020/12/19 04:47:33;;;;;;;23.90;7.90;;;;;;;;;;10351735;28;20521;-60
2020/12/19 04:52:30;;;;;;;16.23;7.70;;;;;;;;;;10356957;28;20680;-61
2020/12/19 04:57:28;;;;;;;14.33;6.33;;;;;;;;;;10358899;28;20495;-60
2020/12/19 05:02:25;;;;;;;20.80;9.13;;;;;;;;;;10365515;28;20061;-60
2020/12/19 05:07:22;;;;;;;18.47;8.93;;;;;;;;;;10355965;28;20040;-61
2020/12/19 05:12:20;;;;;;;18.30;8.10;;;;;;;;;;10337442;28;20140;-62
2020/12/19 05:17:17;;;;;;;17.43;9.20;;;;;;;;;;10333811;28;20473;-60
2020/12/19 05:22:16;;;;;;;19.07;9.70;;;;;;;;;;10345428;28;20033;-62
2020/12/19 05:27:14;;;;;;;18.33;9.52;;;;;;;;;;10368602;28;20086;-61
2020/12/19 05:32:12;;;;;;;21.97;9.17;;;;;;;;;;10350998;28;20032;-62
2020/12/19 05:37:09;;;;;;;19.17;8.82;;;;;;;;;;10361825;28;20044;-62
2020/12/19 05:42:07;;;;;;;22.53;9.33;;;;;;;;;;10361118;28;20036;-60
2020/12/19 05:47:09;;;;;;;18.80;8.03;;;;;;;;;;10372624;28;20031;-61
2020/12/19 05:52:08;;;;;;;21.88;8.73;;;;;;;;;;10343131;28;20037;-60
2020/12/19 05:57:08;;;;;;;19.42;8.52;;;;;;;;;;10355812;28;20031;-62
2020/12/19 06:02:06;;;;;;;16.67;8.57;;;;;;;;;;10321220;28;20102;-58
2020/12/19 06:07:03;;;;;;;22.70;10.00;;;;;;;;;;10366643;28;20174;-59
2020/12/19 06:12:01;;;;;;;21.23;10.07;;;;;;;;;;10361843;28;20040;-60
2020/12/19 06:17:05;;;;;;;17.50;9.07;;;;;;;;;;10371300;28;20067;-60
2020/12/19 06:22:02;;;;;;;10.02;6.05;;;;;;;;;;10375507;28;20033;-62
2020/12/19 06:27:00;;;;;;;18.83;8.40;;;;;;;;;;10365467;28;20039;-60
2020/12/19 06:32:00;;;;;;;17.33;8.20;;;;;;;;;;10360302;28;20048;-65
2020/12/19 06:36:59;;;;;;;19.83;9.38;;;;;;;;;;10364229;28;20037;-62
2020/12/19 06:41:58;;;;;;;24.73;10.38;;;;;;;;;;10368659;28;20395;-61
2020/12/19 06:46:56;;;;;;;21.98;10.38;;;;;;;;;;10357779;28;20430;-59
2020/12/19 06:52:04;;;;;;;16.45;8.35;;;;;;;;;;10368433;28;20064;-61
2020/12/19 06:57:02;;;;;;;22.73;10.52;;;;;;;;;;10354522;28;20036;-61
2020/12/19 07:02:00;;;;;;;;;;;;;;;;;;10332425;28;20732;-59
2020/12/19 07:07:01;;;;;;;19.20;8.93;;;;;;;;;;10317226;28;20394;-59
2020/12/19 07:11:58;;;;;;;19.98;9.73;;;;;;;;;;10357032;28;20523;-60
2020/12/19 07:16:56;;;;;;;19.93;9.40;;;;;;;;;;10359641;28;20471;-60
2020/12/19 07:21:54;;;;;;;24.67;10.40;;;;;;;;;;10371078;28;20128;-61
2020/12/19 07:26:52;;;;;;;22.25;10.10;;;;;;;;;;10370658;28;20033;-61
2020/12/19 07:31:54;;;;;;;25.03;11.00;;;;;;;;;;10346536;28;20044;-61
2020/12/19 07:36:52;;;;;;;18.35;9.18;;;;;;;;;;10353193;28;20094;-61
2020/12/19 07:42:08;;;;;;;15.93;8.52;;;;;;;;;;10349414;28;20148;-59
2020/12/19 07:47:09;;;;;;;21.33;10.77;;;;;;;;;;10362520;28;20029;-59
2020/12/19 07:52:07;;;;;;;25.45;10.75;;;;;;;;;;10356002;28;20159;-62
2020/12/19 07:57:05;;;;;;;25.10;11.17;;;;;;;;;;10353492;28;20146;-60
2020/12/19 08:02:03;;;;;;;25.17;9.60;;;;;;;;;;10361016;28;20447;-60
2020/12/19 08:07:01;;;;;;;24.80;10.82;;;;;;;;;;10365880;28;20119;-63
2020/12/19 08:12:00;;;;;;;25.50;11.43;;;;;;;;;;10364073;28;20115;-60
2020/12/19 08:16:58;;;;;;;18.77;9.18;;;;;;;;;;10357363;28;20037;-62
2020/12/19 08:22:01;;;;;;;26.55;11.82;;;;;;;;;;10352877;28;20044;-64
2020/12/19 08:27:17;;;;;;;24.42;11.40;;;;;;;;;;10350037;28;20032;-65
2020/12/19 08:32:14;;;;;;;26.05;10.95;;;;;;;;;;10354580;28;20033;-63
2020/12/19 08:37:18;;;;;;;18.97;8.47;;;;;;;;;;10358892;28;20037;-60
2020/12/19 08:42:15;;;;;;;19.05;8.98;;;;;;;;;;10365426;28;20082;-61
2020/12/19 08:47:13;;;;;;;29.30;11.70;;;;;;;;;;10355007;28;20032;-62
2020/12/19 08:52:11;;;;;;;19.50;10.83;;;;;;;;;;10362832;28;20039;-61
2020/12/19 08:57:25;;;;;;;22.67;10.67;;;;;;;;;;10357772;28;20365;-64
2020/12/19 09:02:23;;;;;;;15.80;9.18;;;;;;;;;;10308454;28;21520;-62
2020/12/19 09:07:20;;;;;;;26.33;11.53;;;;;;;;;;10353345;28;20038;-61
2020/12/19 09:12:18;;;;;;;21.40;11.30;;;;;;;;;;10350957;28;20090;-62
2020/12/19 09:17:28;;;;;;;24.47;11.70;;;;;;;;;;10343101;28;20036;-62
2020/12/19 09:22:25;;;;;;;22.02;10.02;;;;;;;;;;10337610;28;20056;-62
2020/12/19 09:27:23;;;;;;;16.37;8.47;;;;;;;;;;10369559;28;20521;-66
2020/12/19 09:32:20;;;;;;;16.73;7.03;;;;;;;;;;10363168;28;20583;-62
2020/12/19 09:37:18;;;;;;;21.83;10.27;;;;;;;;;;10368159;28;20036;-62
2020/12/19 09:42:15;;;;;;;23.10;9.93;;;;;;;;;;10328717;28;20393;-63
2020/12/19 09:47:13;;;;;;;24.10;10.73;;;;;;;;;;10309902;28;20029;-63
2020/12/19 09:52:10;;;;;;;19.73;8.80;;;;;;;;;;10316762;28;20040;-62
2020/12/19 09:57:07;;;;;;;22.70;11.50;;;;;;;;;;10323400;28;20029;-62
2020/12/19 10:02:05;;;;;;;22.60;12.73;;;;;;;;;;10306545;28;20053;-62
2020/12/19 10:07:02;;;;;;;21.87;10.10;;;;;;;;;;10319431;28;20044;-63
2020/12/19 10:11:59;;;;;;;26.60;11.67;;;;;;;;;;10354459;28;20660;-63
2020/12/19 10:16:57;;;;;;;22.47;10.13;;;;;;;;;;10365407;28;20360;-63
2020/12/19 10:21:55;;;;;;;21.87;11.33;;;;;;;;;;10366126;28;20402;-63
2020/12/19 10:26:53;;;;;;;;;;;;;;;;;;10302078;28;20044;-65
2020/12/19 10:31:51;;;;;;;23.75;11.48;;;;;;;;;;10329569;28;19916;-63
2020/12/19 10:36:49;;;;;;;25.63;11.63;;;;;;;;;;10333616;28;20032;-63
2020/12/19 10:41:47;;;;;;;20.33;10.15;;;;;;;;;;10343249;28;20059;-62
2020/12/19 10:46:45;;;;;;;16.70;8.52;;;;;;;;;;10328687;28;20124;-62
2020/12/19 10:51:42;;;;;;;18.83;8.07;;;;;;;;;;10306352;28;20163;-63
2020/12/19 10:56:40;;;;;;;12.03;7.40;;;;;;;;;;10325222;28;20033;-62
2020/12/19 11:01:37;;;;;;;18.23;9.57;;;;;;;;;;10312064;28;20042;-63
2020/12/19 11:06:35;;;;;;;21.47;6.80;;;;;;;;;;10313345;28;20586;-64
2020/12/19 11:11:32;;;;;;;16.83;8.77;;;;;;;;;;10319418;28;20569;-62
2020/12/19 11:16:29;;;;;;;16.90;8.13;;;;;;;;;;10354446;28;20040;-63
2020/12/19 11:21:27;;;;;;;21.70;9.40;;;;;;;;;;10334953;28;20479;-64
2020/12/19 11:26:24;;;;;;;15.73;8.23;;;;;;;;;;10363198;28;20029;-64
2020/12/19 11:31:26;;;;;;;14.67;8.33;;;;;;;;;;10358131;28;20553;-64
2020/12/19 11:36:24;;;;;;;16.95;8.43;;;;;;;;;;10358191;28;20194;-64
2020/12/19 11:41:24;;;;;;;15.30;8.30;;;;;;;;;;10356825;28;20068;-64
2020/12/19 11:46:22;;;;;;;15.43;7.53;;;;;;;;;;10359962;28;20561;-64
2020/12/19 11:51:26;;;;;;;19.30;9.00;;;;;;;;;;10329710;28;20045;-63
2020/12/19 11:56:24;;;;;;;16.88;8.70;;;;;;;;;;10350759;28;20059;-65
2020/12/19 12:01:28;;;;;;;18.17;9.33;;;;;;;;;;10344173;28;20468;-63
2020/12/19 12:06:29;;;;;;;13.02;6.75;;;;;;;;;;10323345;28;21086;-64
2020/12/19 12:11:27;;;;;;;15.15;8.43;;;;;;;;;;10349733;28;20055;-64
2020/12/19 12:16:26;;;;;;;15.45;7.38;;;;;;;;;;10359510;28;20494;-65
2020/12/19 12:21:26;;;;;;;15.90;8.10;;;;;;;;;;10349322;28;20166;-64
2020/12/19 12:26:26;;;;;;;20.35;7.35;;;;;;;;;;10334102;28;20588;-63
2020/12/19 12:31:24;;;;;;;12.43;7.55;;;;;;;;;;10366049;28;20210;-63
2020/12/19 12:36:23;;;;;;;15.88;8.15;;;;;;;;;;10375700;28;20679;-63
2020/12/19 12:41:20;;;;;;;15.80;7.38;;;;;;;;;;10375370;28;20032;-63
2020/12/19 12:46:19;;;;;;;14.47;6.47;;;;;;;;;;10376064;28;20036;-64
2020/12/19 12:51:17;;;;;;;12.90;6.35;;;;;;;;;;10377634;28;20060;-64
2020/12/19 12:56:14;;;;;;;11.05;6.80;;;;;;;;;;10376221;28;20140;-63
2020/12/19 13:01:12;;;;;;;17.97;9.30;;;;;;;;;;10378159;28;20152;-64
2020/12/19 13:06:09;;;;;;;14.70;6.47;;;;;;;;;;10374089;28;20394;-63
2020/12/19 13:11:07;;;;;;;16.60;7.87;;;;;;;;;;10336710;28;20629;-66
2020/12/19 13:16:04;;;;;;;15.93;8.03;;;;;;;;;;10341071;28;20035;-62
2020/12/19 13:21:02;;;;;;;19.07;8.60;;;;;;;;;;10363805;28;20129;-63
2020/12/19 13:26:00;;;;;;;16.17;7.60;;;;;;;;;;10354654;28;21022;-64
2020/12/19 13:31:00;;;;;;;13.37;6.73;;;;;;;;;;10368987;28;20052;-63
2020/12/19 13:35:58;;;;;;;13.55;6.72;;;;;;;;;;10360416;28;20555;-64
2020/12/19 13:40:55;;;;;;;13.57;6.57;;;;;;;;;;10354451;28;20033;-64
2020/12/19 13:45:52;;;;;;;13.93;7.87;;;;;;;;;;10345848;28;20037;-64
2020/12/19 13:50:50;;;;;;;16.37;7.07;;;;;;;;;;10351975;28;20095;-64
2020/12/19 13:55:47;;;;;;;18.30;8.47;;;;;;;;;;10324328;28;20044;-64
2020/12/19 14:00:45;;;;;;;14.37;7.40;;;;;;;;;;10325880;28;20479;-64
2020/12/19 14:05:42;;;;;;;17.53;7.73;;;;;;;;;;10350726;28;20032;-64
2020/12/19 14:10:39;;;;;;;13.53;7.53;;;;;;;;;;10363324;28;20499;-63
2020/12/19 14:15:37;;;;;;;13.10;7.20;;;;;;;;;;10367999;28;20041;-63
2020/12/19 14:20:34;;;;;;;15.30;6.17;;;;;;;;;;10327929;28;20040;-63
2020/12/19 14:25:32;;;;;;;16.17;8.00;;;;;;;;;;10345588;28;20072;-63
2020/12/19 14:30:29;;;;;;;9.37;5.80;;;;;;;;;;10324575;28;20506;-65
2020/12/19 14:35:26;;;;;;;13.77;6.93;;;;;;;;;;10332367;28;20067;-63
2020/12/19 14:40:26;;;;;;;11.77;5.97;;;;;;;;;;10349370;28;20041;-64
2020/12/19 14:45:24;;;;;;;13.30;6.57;;;;;;;;;;10343374;28;20502;-64
2020/12/19 14:50:21;;;;;;;11.97;6.57;;;;;;;;;;10345509;28;20056;-63
2020/12/19 14:55:19;;;;;;;12.70;6.97;;;;;;;;;;10350293;28;20120;-63
2020/12/19 15:00:16;;;;;;;15.03;7.97;;;;;;;;;;10308487;28;20035;-63
2020/12/19 15:05:13;;;;;;;13.70;4.27;;;;;;;;;;10310700;28;20503;-64
2020/12/19 15:10:11;;;;;;;11.00;6.30;;;;;;;;;;10329571;28;20234;-63
2020/12/19 15:15:08;;;;;;;15.67;8.07;;;;;;;;;;10321893;28;20521;-64
2020/12/19 15:20:06;;;;;;;13.43;7.43;;;;;;;;;;10333138;28;20550;-64
2020/12/19 15:25:03;;;;;;;15.33;7.57;;;;;;;;;;10313185;28;20532;-63
2020/12/19 15:30:00;;;;;;;15.57;8.30;;;;;;;;;;10318972;28;20033;-63
2020/12/19 15:34:58;;;;;;;17.40;8.83;;;;;;;;;;10314206;28;20074;-63
2020/12/19 15:39:55;;;;;;;17.37;8.97;;;;;;;;;;10319956;28;20033;-64
2020/12/19 15:44:53;;;;;;;16.77;6.77;;;;;;;;;;10337416;28;20598;-63
2020/12/19 15:49:50;;;;;;;14.10;7.97;;;;;;;;;;10328644;28;20086;-64
2020/12/19 15:54:47;;;;;;;11.80;7.73;;;;;;;;;;10321957;28;20051;-63
2020/12/19 15:59:45;;;;;;;15.83;8.17;;;;;;;;;;10345915;28;20043;-64
2020/12/19 16:04:42;;;;;;;17.00;8.90;;;;;;;;;;10364756;28;20094;-64
2020/12/19 16:09:40;;;;;;;15.97;7.97;;;;;;;;;;10326111;28;20025;-65
2020/12/19 16:14:38;;;;;;;13.07;7.30;;;;;;;;;;10330699;28;20445;-64
2020/12/19 16:19:35;;;;;;;19.15;10.43;;;;;;;;;;10308562;28;20033;-63
2020/12/19 16:24:33;;;;;;;15.83;7.93;;;;;;;;;;10298296;28;20040;-64
2020/12/19 16:29:30;;;;;;;14.57;8.23;;;;;;;;;;10316661;28;20059;-63
2020/12/19 16:34:29;;;;;;;14.87;7.00;;;;;;;;;;10324414;28;20041;-65
2020/12/19 16:39:27;;;;;;;14.90;6.82;;;;;;;;;;10307602;28;20179;-64
2020/12/19 16:44:24;;;;;;;18.35;8.70;;;;;;;;;;10290515;28;20033;-65
2020/12/19 16:49:22;;;;;;;14.37;7.63;;;;;;;;;;10313791;28;20041;-65
2020/12/19 16:54:19;;;;;;;17.83;8.10;;;;;;;;;;10315356;28;20582;-64
2020/12/19 16:59:17;;;;;;;13.10;7.30;;;;;;;;;;10336870;28;21121;-64
2020/12/19 17:04:14;;;;;;;13.37;7.43;;;;;;;;;;10343711;28;20041;-64
2020/12/19 17:09:12;;;;;;;11.80;6.23;;;;;;;;;;10351227;28;20715;-64
2020/12/19 17:14:10;;;;;;;13.00;7.07;;;;;;;;;;10334187;28;20028;-63
2020/12/19 17:19:07;;;;;;;13.17;7.10;;;;;;;;;;10336427;28;20050;-64
2020/12/19 17:24:05;;;;;;;13.93;6.90;;;;;;;;;;10336932;28;20043;-65
2020/12/19 17:29:04;;;;;;;14.73;6.18;;;;;;;;;;10309974;28;20090;-65
2020/12/19 17:34:01;;;;;;;10.80;5.20;;;;;;;;;;10303726;28;20044;-65
2020/12/19 17:38:59;;;;;;;11.00;5.60;;;;;;;;;;10333235;28;20033;-62
2020/12/19 17:43:57;;;;;;;13.20;6.27;;;;;;;;;;10327033;28;20068;-64
2020/12/19 17:48:55;;;;;;;11.30;6.75;;;;;;;;;;10335039;28;20515;-62
2020/12/19 17:53:53;;;;;;;12.25;6.57;;;;;;;;;;10334768;28;20402;-63
2020/12/19 17:58:50;;;;;;;10.95;6.03;;;;;;;;;;10354834;28;20055;-63
2020/12/19 18:03:48;;;;;;;10.10;6.17;;;;;;;;;;10335400;28;20383;-63
2020/12/19 18:08:45;;;;;;;9.07;5.80;;;;;;;;;;10330288;28;20139;-64
2020/12/19 18:13:43;;;;;;;13.37;8.00;;;;;;;;;;10356894;28;20435;-63
2020/12/19 18:18:43;;;;;;;12.17;6.90;;;;;;;;;;10350560;28;20045;-64
2020/12/19 18:23:40;;;;;;;9.45;5.38;;;;;;;;;;10301160;28;20044;-63
2020/12/19 18:28:39;;;;;;;13.90;7.47;;;;;;;;;;10324374;28;20037;-63
2020/12/19 18:33:36;;;;;;;7.97;5.10;;;;;;;;;;10313275;28;20407;-63
2020/12/19 18:38:33;;;;;;;9.27;5.87;;;;;;;;;;10336917;28;20043;-63
2020/12/19 18:43:31;;;;;;;9.83;6.93;;;;;;;;;;10352380;28;20403;-63
2020/12/19 18:48:28;;;;;;;11.33;6.27;;;;;;;;;;10361171;28;20036;-64
2020/12/19 18:53:25;;;;;;;12.77;5.90;;;;;;;;;;10352124;28;20033;-63
2020/12/19 18:58:23;;;;;;;8.73;5.23;;;;;;;;;;10362773;28;20046;-66
2020/12/19 19:03:20;;;;;;;11.07;5.73;;;;;;;;;;10361008;28;20040;-65
2020/12/19 19:08:18;;;;;;;15.43;8.17;;;;;;;;;;10364473;28;20407;-63
2020/12/19 19:13:15;;;;;;;8.27;4.83;;;;;;;;;;10350018;28;20040;-67
2020/12/19 19:18:13;;;;;;;10.93;5.73;;;;;;;;;;10360587;28;20040;-63
2020/12/19 19:23:10;;;;;;;10.70;5.43;;;;;;;;;;10356420;28;20041;-62
2020/12/19 19:28:09;;;;;;;10.37;5.23;;;;;;;;;;10344972;28;20119;-62
2020/12/19 19:33:06;;;;;;;8.38;5.28;;;;;;;;;;10359233;28;20037;-61
2020/12/19 19:38:05;;;;;;;7.90;5.67;;;;;;;;;;10371648;28;20051;-61
2020/12/19 19:43:02;;;;;;;;;;;;;;;;;;10355641;28;20048;-62
2020/12/19 19:48:00;;;;;;;15.73;6.07;;;;;;;;;;10363801;28;19912;-61
2020/12/19 19:52:57;;;;;;;12.33;6.23;;;;;;;;;;10366862;28;20029;-62
2020/12/19 19:57:55;;;;;;;14.07;5.93;;;;;;;;;;10360043;28;20043;-62
2020/12/19 20:02:52;;;;;;;13.50;7.13;;;;;;;;;;10358195;28;20051;-63
2020/12/19 20:07:50;;;;;;;12.90;6.40;;;;;;;;;;10369478;28;20451;-63
2020/12/19 20:12:48;;;;;;;13.50;6.05;;;;;;;;;;10360265;28;20399;-64
2020/12/19 20:17:45;;;;;;;12.93;5.63;;;;;;;;;;10346542;28;20039;-63
2020/12/19 20:22:43;;;;;;;13.03;5.53;;;;;;;;;;10357633;28;20129;-63
2020/12/19 20:27:40;;;;;;;11.40;6.53;;;;;;;;;;10325283;28;20514;-62
2020/12/19 20:32:38;;;;;;;14.70;6.23;;;;;;;;;;10369704;28;20045;-63
2020/12/19 20:37:35;;;;;;;12.43;6.87;;;;;;;;;;10373722;28;20045;-63
2020/12/19 20:42:37;;;;;;;12.97;6.60;;;;;;;;;;10357373;28;20369;-63
2020/12/19 20:47:34;;;;;;;11.45;6.65;;;;;;;;;;10362914;28;20111;-63
2020/12/19 20:52:32;;;;;;;12.03;7.23;;;;;;;;;;10374686;28;20017;-63
2020/12/19 20:57:29;;;;;;;20.23;7.10;;;;;;;;;;10358404;28;20044;-63
2020/12/19 21:02:27;;;;;;;14.67;8.00;;;;;;;;;;10344907;28;20032;-63
2020/12/19 21:07:25;;;;;;;13.97;7.20;;;;;;;;;;10371029;28;20021;-63
2020/12/19 21:12:22;;;;;;;9.30;7.20;;;;;;;;;;10358735;28;20837;-64
2020/12/19 21:17:20;;;;;;;10.97;6.57;;;;;;;;;;10347502;28;20536;-63
2020/12/19 21:22:18;;;;;;;15.55;8.43;;;;;;;;;;10336667;28;20040;-63
2020/12/19 21:27:15;;;;;;;12.00;7.30;;;;;;;;;;10311246;28;20024;-63
2020/12/19 21:32:13;;;;;;;12.70;7.43;;;;;;;;;;10351327;28;20504;-63
2020/12/19 21:37:10;;;;;;;11.83;6.60;;;;;;;;;;10363214;28;20029;-65
2020/12/19 21:42:08;;;;;;;9.10;5.83;;;;;;;;;;10358246;28;20481;-65
2020/12/19 21:47:05;;;;;;;10.80;7.03;;;;;;;;;;10358960;28;20037;-66
2020/12/19 21:52:03;;;;;;;11.13;6.07;;;;;;;;;;10337886;28;20044;-64
2020/12/19 21:57:01;;;;;;;12.00;6.40;;;;;;;;;;10359997;28;20056;-64
2020/12/19 22:01:59;;;;;;;10.73;5.70;;;;;;;;;;10357183;28;20491;-63
2020/12/19 22:06:56;;;;;;;10.73;5.73;;;;;;;;;;10366779;28;20508;-64
2020/12/19 22:11:53;;;;;;;8.50;4.53;;;;;;;;;;10358247;28;20128;-63
2020/12/19 22:16:55;;;;;;;7.77;4.40;;;;;;;;;;10347017;28;20039;-64
2020/12/19 22:21:52;;;;;;;8.30;4.72;;;;;;;;;;10335277;28;20068;-63
2020/12/19 22:26:51;;;;;;;8.97;4.10;;;;;;;;;;10341013;28;20058;-66
2020/12/19 22:31:48;;;;;;;6.32;3.45;;;;;;;;;;10317601;28;20142;-65
2020/12/19 22:36:49;;;;;;;4.57;3.00;;;;;;;;;;10364385;28;20138;-66
2020/12/19 22:41:47;;;;;;;6.25;3.58;;;;;;;;;;10358556;28;20048;-65
2020/12/19 22:46:45;;;;;;;5.00;3.08;;;;;;;;;;10366602;28;20085;-65
2020/12/19 22:51:46;;;;;;;8.80;3.72;;;;;;;;;;10361430;28;20036;-65
2020/12/19 22:56:47;;;;;;;3.50;3.20;;;;;;;;;;10369652;28;20044;-65
2020/12/19 23:01:45;;;;;;;6.18;2.92;;;;;;;;;;10359149;28;20045;-64
2020/12/19 23:06:42;;;;;;;5.72;2.92;;;;;;;;;;10367708;28;20068;-64
2020/12/19 23:11:40;;;;;;;8.17;3.60;;;;;;;;;;10376577;28;20166;-63
2020/12/19 23:16:37;;;;;;;6.87;3.37;;;;;;;;;;10368856;28;20044;-65
2020/12/19 23:21:35;;;;;;;2.93;2.20;;;;;;;;;;10372248;28;20033;-66
2020/12/19 23:26:33;;;;;;;10.38;4.72;;;;;;;;;;10361372;28;20032;-66
2020/12/19 23:31:31;;;;;;;6.95;4.28;;;;;;;;;;10350591;28;20067;-64
2020/12/19 23:36:28;;;;;;;9.30;5.83;;;;;;;;;;10326366;28;20033;-64
2020/12/19 23:41:25;;;;;;;11.83;5.90;;;;;;;;;;10320518;28;20045;-65
2020/12/19 23:46:23;;;;;;;8.90;5.00;;;;;;;;;;10319263;28;20480;-65
2020/12/19 23:51:28;;;;;;;8.17;5.37;;;;;;;;;;10308231;28;20034;-65
2020/12/19 23:56:27;;;;;;;7.38;4.82;;;;;;;;;;10331794;28;20139;-65
